Time;durP1;ratioP1;P1;durP2;ratioP2;P2;SDS_P1;SDS_P2;PMS_P1;PMS_P2;Temp;Humidity;BMP_temperature;BMP_pressure;BME280_temperature;BME280_humidity;BME280_pressure;Samples;Min_cycle;Max_cycle;Signal;HPM_P1;HPM_P2
2022/01/30 00:01:21;;;;;;;5.03;1.25;;;;;;;7.23;75.32;99355.91;5031470;28;20033;-80
2022/01/30 00:03:48;;;;;;;5.18;1.25;;;;;;;6.93;75.84;99360.59;5033286;28;20031;-80
2022/01/30 00:06:14;;;;;;;5.88;1.75;;;;;;;6.72;75.32;99361.59;5031724;28;20029;-81
2022/01/30 00:08:41;;;;;;;5.32;2.00;;;;;;;6.45;76.98;99365.28;5033075;28;20546;-80
2022/01/30 00:11:14;;;;;;;4.88;1.35;;;;;;;6.51;75.46;99350.00;5031653;28;20501;-79
2022/01/30 00:13:42;;;;;;;5.72;1.38;;;;;;;6.53;74.55;99351.59;5031812;28;20364;-79
2022/01/30 00:16:10;;;;;;;6.50;1.27;;;;;;;6.31;74.45;99338.44;5031738;28;20031;-80
2022/01/30 00:23:53;;;;;;;4.07;2.00;;;;;;;5.96;72.61;99323.09;5033283;28;20034;-81
2022/01/30 00:26:27;;;;;;;9.35;1.95;;;;;;;5.98;72.30;99312.06;5033218;28;20021;-81
2022/01/30 00:28:53;;;;;;;9.60;1.60;;;;;;;6.00;71.89;99341.47;5034021;28;20025;-81
2022/01/30 00:31:21;;;;;;;6.57;1.10;;;;;;;6.18;71.51;99339.84;5036786;28;20074;-80
2022/01/30 00:33:53;;;;;;;13.15;2.35;;;;;;;6.05;71.36;99317.44;5036374;28;20105;-80
2022/01/30 00:36:23;;;;;;;7.68;1.80;;;;;;;6.08;71.07;99305.94;5033864;28;20033;-81
2022/01/30 00:38:48;;;;;;;6.30;1.67;;;;;;;6.06;70.70;99328.28;5035029;28;20443;-80
2022/01/30 00:41:14;;;;;;;6.28;1.50;;;;;;;5.92;70.88;99326.06;5017178;28;20030;-79
2022/01/30 00:43:40;;;;;;;9.10;1.70;;;;;;;6.02;71.15;99324.00;5033542;28;20536;-80
2022/01/30 00:46:06;;;;;;;9.20;2.47;;;;;;;5.98;70.66;99318.53;5033641;28;20037;-80
2022/01/30 00:48:34;;;;;;;6.45;1.90;;;;;;;6.15;70.82;99304.06;5033361;28;20033;-80
2022/01/30 00:50:59;;;;;;;8.50;1.50;;;;;;;6.34;70.60;99340.31;5035842;28;20021;-79
2022/01/30 00:53:25;;;;;;;11.02;2.13;;;;;;;6.35;69.84;99350.38;5034661;28;20049;-81
2022/01/30 00:55:51;;;;;;;8.43;2.22;;;;;;;6.39;69.09;99333.22;5017809;28;20025;-79
2022/01/30 00:58:18;;;;;;;8.95;2.05;;;;;;;6.28;69.80;99328.06;5034565;28;20140;-79
2022/01/30 01:00:44;;;;;;;5.50;1.42;;;;;;;6.47;68.73;99335.25;5034986;28;20044;-80
2022/01/30 01:03:10;;;;;;;7.57;2.22;;;;;;;6.40;69.13;99340.47;5035012;28;20116;-80
2022/01/30 01:05:39;;;;;;;9.30;1.77;;;;;;;6.48;67.93;99345.31;5036027;28;20083;-80
2022/01/30 01:08:48;;;;;;;9.00;2.53;;;;;;;6.58;67.39;99343.25;5018152;28;20359;-80
2022/01/30 01:11:17;;;;;;;6.82;1.85;;;;;;;6.81;65.43;99324.78;5030506;28;20033;-80
2022/01/30 01:24:27;;;;;;;13.40;2.05;;;;;;;6.83;62.21;99322.25;5034703;28;20047;-80
2022/01/30 01:26:53;;;;;;;11.13;3.00;;;;;;;6.84;62.05;99330.28;5035377;28;20017;-80
2022/01/30 01:29:20;;;;;;;9.10;2.47;;;;;;;7.01;62.18;99327.81;5034055;28;20037;-80
2022/01/30 01:31:46;;;;;;;8.88;2.35;;;;;;;7.05;62.10;99322.00;5033883;28;20050;-80
2022/01/30 01:34:46;;;;;;;16.20;2.70;;;;;;;7.02;63.86;99318.09;5034043;28;20107;-80
2022/01/30 01:37:09;;;;;;;9.95;2.33;;;;;;;7.00;64.34;99325.50;5033881;28;20033;-80
2022/01/30 01:39:35;;;;;;;12.70;2.40;;;;;;;7.06;64.01;99332.06;5018052;28;20033;-80
2022/01/30 01:42:00;;;;;;;13.68;2.50;;;;;;;6.96;63.95;99324.91;5017201;28;20083;-79
2022/01/30 01:44:49;;;;;;;17.27;2.78;;;;;;;7.10;63.42;99312.88;5034779;28;20514;-81
2022/01/30 01:47:18;;;;;;;11.95;2.28;;;;;;;7.20;63.06;99305.91;5034036;28;20099;-81
2022/01/30 01:50:02;;;;;;;6.57;2.22;;;;;;;7.20;62.55;99315.16;5034626;28;20030;-81
2022/01/30 01:52:27;;;;;;;12.20;2.00;;;;;;;7.16;62.72;99325.09;5017008;28;20045;-81
2022/01/30 01:54:57;;;;;;;13.38;3.55;;;;;;;7.19;62.64;99310.78;5034518;28;20054;-81
2022/01/30 01:57:25;;;;;;;16.50;3.35;;;;;;;7.18;63.12;99314.06;5017207;28;20437;-81
2022/01/30 01:59:51;;;;;;;11.52;1.95;;;;;;;7.11;63.87;99303.88;5000673;28;20401;-81
2022/01/30 02:02:17;;;;;;;11.02;3.13;;;;;;;7.16;63.08;99289.06;5033409;28;20042;-81
2022/01/30 02:04:46;;;;;;;14.68;2.70;;;;;;;7.21;62.55;99294.06;5016915;28;20033;-81
2022/01/30 02:09:59;;;;;;;10.10;2.25;;;;;;;7.25;62.63;99289.00;5019985;28;20075;-81
2022/01/30 02:12:48;;;;;;;7.95;2.03;;;;;;;7.28;61.98;99285.22;5032557;28;20423;-80
2022/01/30 02:26:06;;;;;;;11.00;1.77;;;;;;;6.94;59.62;99275.19;5032229;28;20496;-81
2022/01/30 02:28:33;;;;;;;16.40;2.30;;;;;;;7.14;59.00;99274.63;5032716;28;20041;-80
2022/01/30 02:31:11;;;;;;;10.07;3.33;;;;;;;7.15;59.43;99278.22;5033968;28;20044;-81
2022/01/30 02:33:42;;;;;;;11.95;2.15;;;;;;;7.23;58.77;99271.72;5033370;28;20037;-82
2022/01/30 02:36:26;;;;;;;11.43;2.22;;;;;;;7.14;58.74;99254.78;5031030;28;20037;-81
2022/01/30 02:38:57;;;;;;;4.60;1.85;;;;;;;7.10;59.08;99261.91;5034244;28;20036;-81
2022/01/30 02:41:22;;;;;;;9.55;1.80;;;;;;;7.18;59.37;99249.72;5016415;28;20079;-81
2022/01/30 02:44:27;;;;;;;9.70;2.40;;;;;;;7.40;57.80;99263.56;5032965;28;20033;-81
2022/01/30 02:46:46;;;;;;;9.70;1.95;;;;;;;7.42;57.24;99249.72;5032456;28;20108;-79
2022/01/30 02:49:41;;;;;;;5.80;1.75;;;;;;;7.25;58.25;99252.19;5000666;28;20035;-82
2022/01/30 02:52:14;;;;;;;9.15;2.15;;;;;;;7.30;58.60;99262.84;5032215;28;20061;-81
2022/01/30 02:54:42;;;;;;;14.73;2.25;;;;;;;7.40;58.32;99240.16;5033604;28;20437;-82
2022/01/30 02:57:07;;;;;;;9.27;1.73;;;;;;;7.33;59.12;99261.13;5032682;28;20123;-81
2022/01/30 02:59:34;;;;;;;10.50;2.20;;;;;;;7.35;59.06;99262.19;5032804;28;20478;-81
2022/01/30 03:02:01;;;;;;;10.73;2.15;;;;;;;7.32;59.03;99242.56;5033959;28;20116;-81
2022/01/30 03:04:27;;;;;;;9.05;2.35;;;;;;;7.20;58.79;99264.19;5032518;28;20417;-81
2022/01/30 03:06:54;;;;;;;13.40;2.35;;;;;;;7.06;59.02;99249.94;5015981;28;20032;-81
2022/01/30 03:09:20;;;;;;;8.80;2.47;;;;;;;7.06;59.86;99261.28;5032504;28;20033;-81
2022/01/30 03:11:47;;;;;;;9.63;2.70;;;;;;;7.05;58.86;99251.25;5032406;28;20467;-81
2022/01/30 03:14:13;;;;;;;9.85;2.03;;;;;;;7.05;58.50;99257.69;5033698;28;20390;-82
2022/01/30 03:16:39;;;;;;;12.20;2.33;;;;;;;7.01;59.59;99257.06;5032164;28;20367;-81
2022/01/30 03:19:05;;;;;;;13.27;2.42;;;;;;;7.03;58.66;99236.78;5015847;28;20033;-80
2022/01/30 03:21:30;;;;;;;6.47;2.15;;;;;;;6.89;59.26;99238.28;5033717;28;20083;-81
2022/01/30 03:23:56;;;;;;;9.95;1.80;;;;;;;7.20;58.06;99257.75;5033829;28;20470;-81
2022/01/30 03:26:23;;;;;;;8.43;2.80;;;;;;;7.10;58.80;99274.00;5015824;28;20064;-80
2022/01/30 03:28:49;;;;;;;17.15;2.15;;;;;;;7.20;58.31;99247.19;5015989;28;20025;-81
2022/01/30 03:31:17;;;;;;;9.68;2.05;;;;;;;7.26;58.80;99245.25;5032284;28;20481;-81
2022/01/30 03:33:43;;;;;;;8.20;2.00;;;;;;;7.22;59.06;99258.03;5032235;28;20029;-82
2022/01/30 03:36:09;;;;;;;6.32;1.98;;;;;;;7.05;59.60;99259.72;5032459;28;20033;-81
2022/01/30 03:38:36;;;;;;;10.55;3.05;;;;;;;6.94;59.37;99263.09;5033349;28;20030;-80
2022/01/30 03:41:01;;;;;;;12.18;2.50;;;;;;;7.15;58.54;99275.41;5033418;28;20095;-81
2022/01/30 03:43:27;;;;;;;12.68;2.75;;;;;;;7.24;57.84;99278.97;5033393;28;20029;-81
2022/01/30 03:45:53;;;;;;;13.15;2.35;;;;;;;7.09;58.39;99272.44;5033666;28;20100;-82
2022/01/30 03:48:18;;;;;;;8.75;2.10;;;;;;;7.01;58.80;99259.88;5033488;28;20052;-82
2022/01/30 03:50:44;;;;;;;10.70;1.95;;;;;;;6.93;57.98;99236.81;5031904;28;20540;-81
2022/01/30 03:53:12;;;;;;;8.90;1.63;;;;;;;7.17;57.37;99236.03;5031737;28;20049;-81
2022/01/30 03:55:38;;;;;;;6.60;1.80;;;;;;;7.10;57.15;99233.59;5031834;28;20116;-81
2022/01/30 03:58:04;;;;;;;9.50;1.63;;;;;;;7.29;56.35;99212.38;5015818;28;20038;-81
2022/01/30 04:00:31;;;;;;;8.02;2.28;;;;;;;7.24;56.63;99215.88;5015426;28;20484;-81
2022/01/30 04:03:00;;;;;;;9.57;1.63;;;;;;;7.16;56.58;99232.44;5031978;28;20029;-82
2022/01/30 04:05:25;;;;;;;9.95;1.70;;;;;;;6.92;57.63;99226.75;5018476;28;20048;-81
2022/01/30 04:07:52;;;;;;;7.45;1.80;;;;;;;7.11;56.64;99195.50;5035439;28;20447;-78
2022/01/30 04:10:19;;;;;;;14.02;2.55;;;;;;;7.00;57.39;99235.69;5035870;28;20044;-81
2022/01/30 04:12:45;;;;;;;10.15;2.33;;;;;;;7.10;56.95;99213.78;5036938;28;20025;-81
2022/01/30 04:15:11;;;;;;;6.63;2.20;;;;;;;7.02;56.87;99221.81;5035959;28;20025;-81
2022/01/30 04:17:37;;;;;;;7.32;1.70;;;;;;;6.94;57.69;99217.81;5037096;28;20116;-81
2022/01/30 04:20:04;;;;;;;10.40;2.30;;;;;;;6.86;57.32;99214.53;5036863;28;20025;-82
2022/01/30 04:22:31;;;;;;;8.82;2.13;;;;;;;7.11;56.72;99193.44;5036713;28;20033;-81
2022/01/30 04:24:56;;;;;;;11.00;1.80;;;;;;;7.29;56.12;99190.50;5036861;28;20029;-81
2022/01/30 04:27:36;;;;;;;11.27;1.95;;;;;;;7.29;56.30;99175.56;5018804;28;20026;-80
2022/01/30 04:30:05;;;;;;;4.82;2.17;;;;;;;7.13;57.07;99184.47;5018690;28;20083;-80
2022/01/30 04:32:33;;;;;;;9.55;1.63;;;;;;;7.13;57.40;99185.28;5035325;28;20111;-80
2022/01/30 04:35:00;;;;;;;8.40;1.55;;;;;;;7.03;57.73;99166.78;5036461;28;20522;-81
2022/01/30 05:09:35;;;;;;;13.18;1.88;;;;;;;6.69;58.36;99193.56;5034433;28;20039;-80
2022/01/30 05:12:01;;;;;;;9.40;1.88;;;;;;;6.94;56.66;99181.78;5034370;28;20033;-81
2022/01/30 05:14:34;;;;;;;3.67;1.98;;;;;;;6.91;56.73;99173.47;5035070;28;20090;-81
2022/01/30 05:17:00;;;;;;;12.02;2.72;;;;;;;6.98;57.60;99181.59;5035548;28;20026;-79
2022/01/30 05:19:27;;;;;;;4.97;1.55;;;;;;;7.07;56.58;99189.25;5034409;28;20368;-81
2022/01/30 05:21:53;;;;;;;7.15;1.50;;;;;;;7.05;56.45;99198.22;5034253;28;20478;-80
2022/01/30 05:24:34;;;;;;;8.55;2.30;;;;;;;6.97;56.70;99171.53;5035572;28;20455;-83
2022/01/30 05:27:02;;;;;;;5.30;1.40;;;;;;;7.10;57.10;99166.44;5035592;28;20029;-81
2022/01/30 05:29:28;;;;;;;8.63;2.22;;;;;;;6.84;57.59;99135.00;5034469;28;20029;-81
2022/01/30 05:31:53;;;;;;;3.85;1.55;;;;;;;6.92;58.27;99184.31;5035249;28;20382;-81
2022/01/30 05:34:21;;;;;;;5.93;1.60;;;;;;;6.90;58.68;99178.38;5035501;28;20045;-81
2022/01/30 05:36:48;;;;;;;9.60;1.75;;;;;;;6.97;58.35;99184.91;5035413;28;20026;-81
2022/01/30 05:39:13;;;;;;;8.00;1.75;;;;;;;6.88;58.77;99155.41;5017261;28;20427;-81
2022/01/30 05:41:40;;;;;;;9.80;1.67;;;;;;;6.99;58.66;99131.44;5035089;28;20068;-81
2022/01/30 05:44:10;;;;;;;7.30;1.50;;;;;;;6.96;58.39;99107.69;5001045;28;20532;-82
2022/01/30 05:46:46;;;;;;;5.50;1.40;;;;;;;6.79;59.17;99144.16;5035176;28;20026;-81
2022/01/30 05:49:13;;;;;;;5.88;1.50;;;;;;;6.77;58.88;99117.59;5019177;28;20038;-80
2022/01/30 05:51:40;;;;;;;5.93;2.42;;;;;;;6.76;58.95;99136.59;5001115;28;20033;-79
2022/01/30 05:54:08;;;;;;;11.15;2.50;;;;;;;6.48;59.54;99109.75;5016698;28;20066;-80
2022/01/30 05:56:35;;;;;;;9.38;2.08;;;;;;;6.66;58.76;99135.09;5034807;28;20045;-79
2022/01/30 05:59:02;;;;;;;7.82;1.90;;;;;;;6.58;58.50;99142.38;5033818;28;20159;-81
2022/01/30 06:01:28;;;;;;;8.38;2.05;;;;;;;6.56;59.61;99127.19;5033680;28;20538;-82
2022/01/30 06:03:54;;;;;;;10.65;2.25;;;;;;;6.45;60.46;99136.97;5016895;28;20164;-81
2022/01/30 06:06:20;;;;;;;7.88;2.60;;;;;;;6.29;61.03;99130.94;5034731;28;20087;-81
2022/01/30 06:09:01;;;;;;;9.90;2.00;;;;;;;6.27;60.88;99127.78;5034659;28;20108;-81
2022/01/30 06:11:27;;;;;;;11.50;2.07;;;;;;;6.28;60.32;99129.34;5034831;28;20057;-80
2022/01/30 06:13:52;;;;;;;10.85;2.90;;;;;;;6.40;59.88;99139.69;5017223;28;20064;-82
2022/01/30 06:16:18;;;;;;;4.88;1.67;;;;;;;6.36;59.46;99116.44;5033436;28;20029;-81
2022/01/30 06:18:44;;;;;;;6.07;1.45;;;;;;;6.50;59.82;99107.25;5033170;28;20041;-82
2022/01/30 06:21:09;;;;;;;10.90;2.22;;;;;;;6.44;62.98;99104.28;5033297;28;20041;-80
2022/01/30 06:23:36;;;;;;;6.38;1.60;;;;;;;6.35;62.56;99104.34;5033435;28;20026;-81
2022/01/30 06:26:02;;;;;;;8.18;2.00;;;;;;;6.36;61.74;99114.41;5016374;28;20026;-80
2022/01/30 06:28:29;;;;;;;6.00;1.40;;;;;;;6.38;61.80;99122.38;5000048;28;20040;-81
2022/01/30 06:30:55;;;;;;;8.65;2.10;;;;;;;6.42;61.64;99111.69;5033355;28;20045;-81
2022/01/30 06:33:20;;;;;;;11.65;1.80;;;;;;;6.46;61.42;99109.47;5034438;28;20113;-80
2022/01/30 06:35:46;;;;;;;5.20;1.58;;;;;;;6.44;61.65;99126.91;5033998;28;20112;-81
2022/01/30 06:38:12;;;;;;;9.23;2.05;;;;;;;6.61;60.41;99113.13;5016566;28;20076;-81
2022/01/30 06:40:38;;;;;;;4.10;1.25;;;;;;;6.47;59.89;99128.00;5034461;28;20032;-81
2022/01/30 06:43:04;;;;;;;5.00;1.40;;;;;;;6.68;59.97;99134.63;5032971;28;20033;-81
2022/01/30 06:45:30;;;;;;;13.60;1.92;;;;;;;6.66;60.13;99142.84;5034145;28;20485;-81
2022/01/30 06:47:58;;;;;;;14.00;2.67;;;;;;;6.55;61.75;99146.19;5016589;28;20033;-78
2022/01/30 06:50:24;;;;;;;9.40;2.00;;;;;;;6.43;63.71;99209.41;5032700;28;20021;-80
2022/01/30 06:52:49;;;;;;;4.10;1.23;;;;;;;6.25;63.84;99182.00;5033948;28;20041;-81
2022/01/30 06:55:17;;;;;;;9.52;1.85;;;;;;;6.19;63.72;99177.47;5033739;28;20367;-84
2022/01/30 06:57:45;;;;;;;4.90;1.40;;;;;;;6.18;64.31;99185.16;5017817;28;20375;-80
2022/01/30 07:00:12;;;;;;;10.00;2.30;;;;;;;6.17;65.12;99171.53;5016680;28;20048;-79
2022/01/30 07:02:37;;;;;;;9.48;1.40;;;;;;;6.08;65.23;99180.78;5037832;28;20033;-80
2022/01/30 07:05:03;;;;;;;13.18;1.88;;;;;;;6.20;65.29;99177.00;5041284;28;20105;-79
2022/01/30 07:07:30;;;;;;;9.27;1.90;;;;;;;6.16;65.31;99187.69;5034971;28;20379;-79
2022/01/30 07:09:58;;;;;;;8.35;1.85;;;;;;;6.22;65.07;99168.00;5034783;28;20029;-78
2022/01/30 07:12:24;;;;;;;10.15;2.03;;;;;;;6.02;66.66;99191.94;5034428;28;20108;-77
2022/01/30 07:14:49;;;;;;;7.57;1.45;;;;;;;6.09;67.15;99199.31;5036545;28;20065;-78
2022/01/30 07:17:16;;;;;;;9.18;1.88;;;;;;;5.81;67.92;99176.00;5020592;28;20036;-77
2022/01/30 07:19:41;;;;;;;5.10;2.13;;;;;;;5.87;68.61;99181.81;5032397;28;20022;-79
2022/01/30 07:22:08;;;;;;;2.05;1.48;;;;;;;6.05;68.50;99182.53;5032237;28;20053;-78
2022/01/30 07:24:34;;;;;;;7.53;1.75;;;;;;;5.94;67.84;99193.56;5016185;28;20060;-77
2022/01/30 07:27:00;;;;;;;6.80;1.77;;;;;;;5.98;68.41;99188.53;5032347;28;20116;-77
2022/01/30 07:29:27;;;;;;;10.43;3.00;;;;;;;5.85;68.38;99162.47;5032232;28;20133;-78
2022/01/30 07:31:52;;;;;;;9.98;2.60;;;;;;;5.81;67.85;99181.63;5015718;28;20037;-78
2022/01/30 07:34:21;;;;;;;10.35;2.35;;;;;;;5.83;68.07;99172.66;5015469;28;20485;-77
2022/01/30 07:36:46;;;;;;;7.10;2.08;;;;;;;5.90;66.94;99153.38;5033557;28;20029;-77
2022/01/30 07:39:12;;;;;;;8.35;2.85;;;;;;;5.80;67.29;99143.34;5018858;28;20060;-77
2022/01/30 07:41:37;;;;;;;5.60;1.67;;;;;;;5.96;66.54;99145.84;5037783;28;20036;-79
2022/01/30 07:44:05;;;;;;;11.10;2.28;;;;;;;6.11;66.08;99142.31;5037340;28;20037;-79
2022/01/30 07:46:31;;;;;;;6.10;2.15;;;;;;;6.16;65.95;99111.38;5004174;28;20059;-78
2022/01/30 07:48:57;;;;;;;10.77;1.70;;;;;;;6.36;63.51;99145.50;5003472;28;20478;-81
2022/01/30 07:51:24;;;;;;;6.68;1.83;;;;;;;6.46;63.73;99171.69;5038026;28;20047;-87
2022/01/30 07:53:50;;;;;;;8.07;2.45;;;;;;;6.52;62.61;99155.63;5038487;28;20056;-86
2022/01/30 07:56:15;;;;;;;14.30;2.58;;;;;;;6.66;62.08;99163.41;5039276;28;20045;-87
2022/01/30 07:58:41;;;;;;;10.70;2.78;;;;;;;6.62;63.14;99170.50;5038960;28;20032;-84
2022/01/30 08:01:06;;;;;;;7.97;1.88;;;;;;;6.94;60.75;99141.38;5036378;28;20045;-83
2022/01/30 08:03:32;;;;;;;5.82;1.65;;;;;;;6.92;60.80;99153.16;5038431;28;20090;-84
2022/01/30 08:05:57;;;;;;;9.75;1.75;;;;;;;7.31;59.62;99144.69;5037760;28;20033;-84
2022/01/30 08:08:23;;;;;;;8.98;1.80;;;;;;;7.21;60.24;99151.69;5038898;28;20479;-87
2022/01/30 08:10:51;;;;;;;15.80;2.88;;;;;;;7.14;59.60;99146.41;5046212;28;20090;-84
2022/01/30 08:13:17;;;;;;;9.82;2.33;;;;;;;7.25;58.60;99152.31;5049742;28;20053;-84
2022/01/30 08:15:46;;;;;;;9.07;2.75;;;;;;;7.24;60.13;99154.34;5028538;28;20037;-84
2022/01/30 08:18:13;;;;;;;9.73;2.58;;;;;;;7.11;60.02;99156.66;5034130;28;20080;-84
2022/01/30 08:20:38;;;;;;;7.95;2.15;;;;;;;7.40;58.80;99178.59;5042442;28;20030;-83
2022/01/30 08:23:11;;;;;;;6.47;1.70;;;;;;;7.46;58.89;99173.03;5035485;28;20096;-85
2022/01/30 08:25:39;;;;;;;6.72;1.95;;;;;;;7.47;58.76;99177.44;5036879;28;20105;-82
2022/01/30 08:28:07;;;;;;;8.75;2.33;;;;;;;7.35;58.45;99148.13;5002556;28;20064;-80
2022/01/30 08:30:33;;;;;;;6.95;1.88;;;;;;;7.45;58.47;99177.16;5035337;28;20128;-82
2022/01/30 08:33:00;;;;;;;11.45;2.70;;;;;;;7.55;57.63;99170.91;5035616;28;20588;-80
2022/01/30 08:35:26;;;;;;;10.38;2.63;;;;;;;7.44;57.33;99195.41;5035378;28;20041;-83
2022/01/30 08:37:53;;;;;;;10.52;2.35;;;;;;;7.47;56.59;99198.06;5035682;28;20030;-78
2022/01/30 08:40:21;;;;;;;6.50;2.00;;;;;;;7.56;56.60;99169.63;5034687;28;20033;-75
2022/01/30 08:42:48;;;;;;;15.75;2.90;;;;;;;7.37;57.67;99179.56;5034926;28;20089;-76
2022/01/30 08:45:16;;;;;;;7.32;2.70;;;;;;;7.28;57.89;99205.13;5034903;28;20155;-75
2022/01/30 08:47:49;;;;;;;9.10;2.13;;;;;;;7.51;57.14;99147.66;5035237;28;20030;-77
2022/01/30 08:50:18;;;;;;;13.15;3.15;;;;;;;7.31;57.95;99170.97;5036330;28;20030;-77
2022/01/30 08:52:44;;;;;;;7.47;2.22;;;;;;;7.22;58.33;99181.56;5035901;28;20179;-77
2022/01/30 08:55:11;;;;;;;11.70;2.45;;;;;;;7.23;57.25;99174.66;5036366;28;20466;-77
2022/01/30 08:57:37;;;;;;;7.70;1.98;;;;;;;7.13;58.02;99204.31;5036439;28;20025;-76
2022/01/30 09:00:12;;;;;;;9.50;2.22;;;;;;;7.28;58.35;99154.16;5034336;28;20372;-76
2022/01/30 09:02:38;;;;;;;8.35;2.70;;;;;;;7.34;57.54;99214.53;5032159;28;20605;-76
2022/01/30 09:05:07;;;;;;;9.68;2.10;;;;;;;7.48;57.26;99221.50;5032845;28;20510;-77
2022/01/30 09:07:35;;;;;;;13.52;2.65;;;;;;;7.45;57.44;99197.75;5033980;28;20025;-77
2022/01/30 09:10:01;;;;;;;12.52;2.25;;;;;;;7.19;57.51;99242.81;5016406;28;20025;-77
2022/01/30 09:12:27;;;;;;;8.75;2.33;;;;;;;7.18;57.66;99244.06;5016388;28;20029;-76
2022/01/30 09:14:53;;;;;;;12.60;2.58;;;;;;;7.27;57.31;99231.88;5032907;28;20107;-76
2022/01/30 09:17:22;;;;;;;9.13;2.72;;;;;;;7.24;57.68;99230.03;5031685;28;20096;-76
2022/01/30 09:19:47;;;;;;;12.77;2.50;;;;;;;7.41;57.08;99245.31;5034206;28;20475;-77
2022/01/30 09:22:17;;;;;;;17.10;2.92;;;;;;;7.23;57.01;99245.44;5032684;28;20017;-76
2022/01/30 09:24:43;;;;;;;15.35;2.72;;;;;;;7.10;57.64;99257.03;5016332;28;20036;-76
2022/01/30 09:27:09;;;;;;;8.73;2.20;;;;;;;7.32;56.46;99243.34;5034349;28;20049;-77
2022/01/30 09:29:36;;;;;;;12.38;2.80;;;;;;;7.31;56.04;99252.31;5033825;28;20427;-77
2022/01/30 09:32:04;;;;;;;13.73;2.22;;;;;;;7.42;57.19;99263.09;5035652;28;20035;-75
2022/01/30 09:34:30;;;;;;;13.25;2.72;;;;;;;7.37;57.13;99239.84;5035739;28;20021;-77
2022/01/30 09:36:56;;;;;;;12.35;2.60;;;;;;;7.41;57.14;99259.47;5035344;28;20032;-76
2022/01/30 09:39:37;;;;;;;17.02;3.53;;;;;;;7.49;56.93;99277.69;5017415;28;20124;-77
2022/01/30 09:42:03;;;;;;;8.50;2.67;;;;;;;7.56;56.88;99246.13;5035469;28;20100;-76
2022/01/30 09:44:30;;;;;;;8.90;1.65;;;;;;;7.80;56.25;99255.38;5033776;28;20116;-76
2022/01/30 09:46:56;;;;;;;10.13;1.95;;;;;;;7.73;55.83;99266.31;5017367;28;20055;-75
2022/01/30 09:49:24;;;;;;;14.43;2.47;;;;;;;7.76;55.30;99245.50;5033764;28;20033;-76
2022/01/30 09:51:51;;;;;;;11.63;3.30;;;;;;;7.85;55.73;99241.78;5017141;28;20029;-75
2022/01/30 09:54:17;;;;;;;13.80;2.17;;;;;;;7.72;56.21;99203.19;5000719;28;20140;-76
2022/01/30 09:56:44;;;;;;;8.88;3.15;;;;;;;7.82;55.89;99238.69;5033554;28;20116;-75
2022/01/30 09:59:09;;;;;;;12.40;2.88;;;;;;;8.08;54.67;99266.47;5034890;28;20071;-76
2022/01/30 10:01:37;;;;;;;12.82;3.42;;;;;;;8.21;55.46;99292.50;5033483;28;20124;-75
2022/01/30 10:04:05;;;;;;;9.52;2.75;;;;;;;8.23;54.76;99304.94;5000582;28;20111;-76
2022/01/30 10:06:50;;;;;;;12.30;2.53;;;;;;;8.21;55.21;99350.00;5017130;28;20474;-75
2022/01/30 10:09:26;;;;;;;13.75;3.65;;;;;;;8.12;56.92;99335.91;5033541;28;20033;-76
2022/01/30 10:15:00;;;;;;;13.32;3.10;;;;;;;7.61;58.59;99321.19;5029229;28;20033;-76
2022/01/30 10:17:35;;;;;;;12.25;3.35;;;;;;;7.47;59.71;99365.19;5034669;28;20081;-76
2022/01/30 10:20:15;;;;;;;8.32;2.28;;;;;;;7.38;60.46;99377.38;5034905;28;20033;-76
2022/01/30 10:22:49;;;;;;;17.52;3.20;;;;;;;7.29;62.47;99393.63;5034246;28;20070;-76
2022/01/30 10:25:31;;;;;;;10.20;3.22;;;;;;;7.15;63.08;99389.44;5034553;28;20026;-76
2022/01/30 10:28:32;;;;;;;17.17;3.60;;;;;;;7.07;63.52;99402.38;5034568;28;20112;-75
2022/01/30 10:31:00;;;;;;;16.08;3.55;;;;;;;7.11;64.25;99407.84;4992915;28;20031;-76
2022/01/30 10:33:45;;;;;;;10.27;2.92;;;;;;;7.00;66.49;99396.28;4992657;28;20034;-76
2022/01/30 10:36:15;;;;;;;12.65;2.75;;;;;;;7.22;65.65;99394.75;4992779;28;20476;-76
2022/01/30 10:38:51;;;;;;;12.77;3.08;;;;;;;7.31;66.02;99391.09;4989546;28;20041;-76
2022/01/30 10:41:22;;;;;;;10.73;3.25;;;;;;;7.50;65.52;99384.06;5034084;28;20025;-76
2022/01/30 10:44:01;;;;;;;10.32;2.97;;;;;;;7.60;64.81;99367.78;5033005;28;20087;-76
2022/01/30 10:46:47;;;;;;;9.35;2.60;;;;;;;7.60;64.99;99385.56;5033133;28;20112;-76
2022/01/30 10:49:21;;;;;;;17.27;2.92;;;;;;;7.66;64.16;99369.50;5033035;28;20025;-77
2022/01/30 10:52:00;;;;;;;15.07;3.88;;;;;;;7.84;63.78;99370.66;5032790;28;20029;-76
2022/01/30 10:54:33;;;;;;;19.90;3.55;;;;;;;8.00;63.20;99382.31;5032450;28;20124;-77
2022/01/30 10:57:11;;;;;;;8.63;2.80;;;;;;;8.16;62.07;99381.88;5032918;28;20518;-76
2022/01/30 10:59:43;;;;;;;13.25;3.45;;;;;;;8.17;61.21;99374.94;5016331;28;20056;-75
2022/01/30 11:02:22;;;;;;;14.25;3.47;;;;;;;8.07;62.22;99384.00;5030377;28;20445;-76
2022/01/30 11:04:49;;;;;;;9.00;2.63;;;;;;;7.99;61.93;99377.16;5016041;28;20057;-76
2022/01/30 11:07:17;;;;;;;12.55;3.67;;;;;;;7.82;62.02;99374.75;5016155;28;20032;-76
2022/01/30 11:10:07;;;;;;;9.38;3.10;;;;;;;7.62;61.19;99382.28;5033102;28;20033;-76
2022/01/30 11:12:41;;;;;;;8.95;3.22;;;;;;;7.58;61.08;99365.47;5032169;28;20037;-76
2022/01/30 11:15:23;;;;;;;17.00;3.20;;;;;;;7.63;61.06;99350.63;5016875;28;20034;-76
2022/01/30 11:17:49;;;;;;;;;;;;;;;7.86;58.42;99365.25;5033096;28;20036;-76
2022/01/30 11:20:14;;;;;;;12.02;3.97;;;;;;;7.76;58.58;99373.84;5032644;28;19912;-76
2022/01/30 11:22:46;;;;;;;14.90;3.97;;;;;;;7.95;58.39;99357.47;5032317;28;20033;-76
2022/01/30 11:25:12;;;;;;;10.95;2.75;;;;;;;7.89;56.33;99370.75;5032333;28;20041;-76
2022/01/30 11:27:42;;;;;;;10.05;3.40;;;;;;;7.83;56.29;99369.84;5016095;28;20036;-76
2022/01/30 11:30:10;;;;;;;12.70;4.32;;;;;;;7.66;57.42;99383.66;5032814;28;20033;-76
2022/01/30 11:32:36;;;;;;;7.68;2.58;;;;;;;7.48;57.97;99363.94;5015977;28;20546;-76
2022/01/30 11:35:02;;;;;;;11.50;3.53;;;;;;;7.55;57.68;99386.25;5033320;28;20171;-75
2022/01/30 11:37:31;;;;;;;9.52;2.85;;;;;;;7.67;56.70;99392.94;5032148;28;20033;-75
2022/01/30 11:39:58;;;;;;;11.57;3.00;;;;;;;7.76;56.50;99370.22;5032292;28;20038;-76
2022/01/30 11:42:37;;;;;;;18.33;3.35;;;;;;;7.73;55.97;99399.53;5015761;28;20030;-77
2022/01/30 11:45:09;;;;;;;13.02;2.80;;;;;;;7.71;55.79;99391.50;5033650;28;20033;-77
2022/01/30 11:48:12;;;;;;;13.57;3.67;;;;;;;7.72;55.53;99392.28;5033270;28;20025;-76
2022/01/30 11:50:39;;;;;;;13.63;2.67;;;;;;;7.74;54.68;99387.72;4991746;28;20050;-75
2022/01/30 11:53:14;;;;;;;20.88;3.63;;;;;;;8.01;54.34;99374.59;4997972;28;20056;-76
2022/01/30 11:56:01;;;;;;;12.82;3.63;;;;;;;8.30;53.37;99385.25;5015803;28;20086;-76
2022/01/30 11:58:33;;;;;;;16.70;4.20;;;;;;;8.35;53.53;99391.03;5032127;28;20083;-77
2022/01/30 12:01:06;;;;;;;14.77;3.10;;;;;;;8.53;51.57;99405.09;5033028;28;20528;-77
2022/01/30 12:03:37;;;;;;;15.43;3.35;;;;;;;8.49;52.62;99398.78;5032056;28;20057;-75
2022/01/30 12:06:22;;;;;;;17.15;3.20;;;;;;;8.43;53.66;99383.75;5033169;28;20017;-76
2022/01/30 12:08:50;;;;;;;12.55;2.85;;;;;;;8.22;52.95;99396.19;5033348;28;20037;-77
2022/01/30 12:11:33;;;;;;;14.75;3.20;;;;;;;8.23;52.96;99380.72;5033013;28;20033;-77
2022/01/30 12:13:59;;;;;;;20.70;3.55;;;;;;;8.07;53.65;99386.84;5033132;28;20052;-77
2022/01/30 12:16:56;;;;;;;16.05;3.63;;;;;;;8.14;53.78;99400.66;5031867;28;20053;-77
2022/01/30 12:19:39;;;;;;;18.48;3.40;;;;;;;7.91;54.61;99427.75;5032143;28;20026;-76
2022/01/30 12:22:23;;;;;;;16.58;3.83;;;;;;;7.87;54.79;99420.69;5033241;28;20060;-77
2022/01/30 12:24:53;;;;;;;18.08;3.08;;;;;;;7.64;55.13;99444.94;5033752;28;20100;-76
2022/01/30 12:27:19;;;;;;;11.23;3.03;;;;;;;7.56;55.05;99429.53;5035351;28;20106;-77
2022/01/30 12:29:50;;;;;;;17.50;3.95;;;;;;;7.45;55.61;99418.72;5035324;28;20029;-76
2022/01/30 12:32:27;;;;;;;13.90;3.42;;;;;;;7.50;56.16;99449.22;5035195;28;20078;-77
2022/01/30 12:34:56;;;;;;;11.73;3.25;;;;;;;7.46;56.20;99459.16;5036637;28;20490;-76
2022/01/30 12:37:30;;;;;;;13.73;3.20;;;;;;;7.38;55.70;99453.84;5036507;28;20026;-77
2022/01/30 12:39:58;;;;;;;17.67;4.57;;;;;;;7.40;55.43;99458.28;5036282;28;20024;-77
2022/01/30 12:42:26;;;;;;;12.68;3.33;;;;;;;7.35;55.70;99466.13;5035024;28;20041;-77
2022/01/30 12:44:59;;;;;;;13.55;3.20;;;;;;;7.49;56.01;99470.34;5035261;28;20033;-77
2022/01/30 12:47:24;;;;;;;14.00;3.38;;;;;;;7.43;55.43;99466.59;5035196;28;20014;-76
2022/01/30 12:49:56;;;;;;;18.70;3.85;;;;;;;7.36;55.69;99470.53;5035090;28;20371;-77
2022/01/30 12:52:35;;;;;;;;;;;;;;;7.46;55.78;99479.78;5035459;28;20538;-77
2022/01/30 12:55:12;;;;;;;14.88;3.65;;;;;;;7.43;55.74;99472.25;5035970;28;19917;-76